Glendale Springs, North Carolina
Current Conditions -  °F | °C
As of 9:55 AM on Wednesday 22 Oct 2014 (Local Time) from KGEV Reporting Station
Broken Clouds Broken Clouds  
Wind Chill: 33°   Ceiling: 2200
Heat Index: 42°   Visibility: 10mi
Dew Point: 32°   Wind: 16mph
Humidity: 69%   Direction: 350°N
Pressure: 30.09"   Gusts: 24mph
Location:  36.35°N, 81.38°W
Report Text: KGEV 221355Z AUTO 35014G21KT 10SM BKN022 05/00 A3009 RMK AO2 T00530000
Loading
Personal Weather Stations






























Interactive Weather Map
Tropical Storm Tracking
New forecast layout! Learn more

10-Day Weather Forecast

Advertisements
Track Severe Weather on mobile